Orlando, Florida
Traffic Map
Current Weather Conditions
Orlando, Florida
Clear
Clear
25°
Feels Like: 26°
Wind Chill: 25° Ceiling: Unl
Heat Index: 26° Visibility: 9mi
Dew Point: 24° Wind: 0mph
Humidity: 94% Direction: ° ()
Pressure: 30.1in Gusts: 0mph
Raw Report DataKORL 251053Z AUTO 00000KT 9SM CLR 25/24 A3010 RMK AO2 SLP195 T02500239
Traffic Incident Summary
Active as of:
Severity:
Category:
InformationThere was an issue retrieving the traffic information for this location. Please try a different location or try again shortly.
Advertisements